Flight Track Log - Related Links

Times and Time Zones

All times are in EDT time to prevent confusion due to time zone crossing. See the N474RL flight status page for this flight to view local times or setup timezone preferences in your user account.

Time Position Orientation Groundspeed Altitude Reporting Facility
EDT Latitude Longitude Course Direction KTS MPH feet Rate Location/Type
Tue 04:12:57 PM 35.1436 -79.5367 232° Southwest 123 142 3,900  Level Washington Center
Tue 04:16:33 PM 35.0625 -79.6594 232° Southwest 138 159 6,000 275 Climbing Washington Center
Tue 04:20:35 PM 34.9456 -79.8361 231° Southwest 169 194 6,000  Level Washington Center
Tue 04:23:14 PM 34.8658 -79.9531 230° Southwest 166 191 6,000  Level Atlanta Center
Tue 04:24:46 PM 34.8242 -80.0183 232° Southwest 167 192 6,000  Level Atlanta Center
Tue 04:25:00 PM 34.8359 -79.9869 230° Southwest  Level FlightAware Approximate
Tue 04:25:47 PM 34.8092 -80.0719 251° West 167 192 6,000  Level Atlanta Center
Tue 04:26:00 PM 34.8422 -79.9784 231° Southwest  Level FlightAware Approximate
Tue 04:26:29 PM 34.8042 -80.1078 260° West 171 197 6,000  Level Atlanta Center
Tue 04:27:37 PM 34.7975 -80.1686 262° West 164 189 6,000  Level Atlanta Center
Tue 04:28:31 PM 34.7889 -80.2222 259° West 166 191 6,000  Level Atlanta Center
Tue 04:29:27 PM 34.7842 -80.2731 264° West 168 193 6,000  Level Atlanta Center
Tue 04:30:28 PM 34.7775 -80.3289 262° West 169 194 6,000  Level Atlanta Center
Tue 04:31:29 PM 34.7689 -80.3900 260° West 167 192 6,000  Level Atlanta Center
Tue 04:32:30 PM 34.7644 -80.4458 264° West 166 191 6,000  Level Atlanta Center
Tue 04:33:31 PM 34.7578 -80.5044 262° West 170 196 6,000  Level Atlanta Center
Tue 04:34:32 PM 34.7508 -80.5553 261° West 166 191 6,000  Level Atlanta Center
Tue 04:35:33 PM 34.7442 -80.6161 262° West 165 190 6,000  Level Atlanta Center
Tue 04:36:34 PM 34.7372 -80.6694 261° West 162 186 6,000  Level Atlanta Center
Tue 04:37:29 PM 34.7303 -80.7203 261° West 164 189 6,000  Level Atlanta Center
Tue 04:38:36 PM 34.7214 -80.7814 260° West 165 190 6,000  Level Atlanta Center
Tue 04:39:38 PM 34.7167 -80.8344 264° West 166 191 6,000  Level Atlanta Center
Tue 04:40:39 PM 34.7078 -80.8956 260° West 167 192 6,000  Level Atlanta Center
Tue 04:41:34 PM 34.7008 -80.9464 261° West 164 189 6,000  Level Atlanta Center
Tue 04:42:35 PM 34.6981 -81.0019 267° West 161 185 6,000  Level Atlanta Center
Tue 04:43:42 PM 34.7014 -81.0600 274° West 162 186 6,000  Level Atlanta Center
Tue 04:44:43 PM 34.7028 -81.1181 272° West 164 189 6,000  Level Atlanta Center
Tue 04:45:44 PM 34.7083 -81.1761 277° West 165 190 6,000  Level Atlanta Center
Tue 04:46:45 PM 34.7097 -81.2314 272° West 164 189 6,000  Level Atlanta Center
Tue 04:47:47 PM 34.7108 -81.2844 271° West 164 189 6,000  Level Atlanta Center
Tue 04:48:47 PM 34.7142 -81.3400 274° West 164 189 6,000  Level Atlanta Center
Tue 04:49:48 PM 34.7175 -81.4006 274° West 166 191 6,000  Level Atlanta Center
Tue 04:50:56 PM 34.7189 -81.4611 272° West 167 192 6,000  Level Atlanta Center

Login

Don't have an account? Register now (free) for customized features, flight alerts, and more!